KAQP

Details ICAO KAQP
Name APPLETON MUNI
Region United States
Timezone America/Chicago (UTC-6.0)
Plans Departing 2
Arriving 0
Stats Elevation 1,020 ft / 311 m (AMSL)
Location 45.227414° -96.004529°
Runways 2
Magnetic Variation 2.403° E
Sunrise 2017-12-11 13:54:41 UTC / 2017-12-11 07:54:41 Local
Sunset 2017-12-11 22:43:00 UTC / 2017-12-11 16:43:00 Local
Advertisement - Login to hide

Runways

ID Width Length Bearing (true) Bearing (mag) Surface Threshold Offset Overrun Length
04 157 ft / 48 m 2,722 ft / 830 m 43.94° 41.54° Grass 0 ft / 0 m 0 ft / 0 m
13 75 ft / 23 m 3,498 ft / 1,066 m 135.52° 133.12° Asphalt 1,021 ft / 311 m 0 ft / 0 m
22 157 ft / 48 m 2,722 ft / 830 m 223.94° 221.54° Grass 0 ft / 0 m 0 ft / 0 m
31 75 ft / 23 m 3,498 ft / 1,066 m 315.52° 313.12° Asphalt 0 ft / 0 m 0 ft / 0 m

Map

Weather


0- 5 10 15 20 25 30 35+ Temperature / ° C

Clouds and Precipitation
Forecast for 2017-12-12 06:00 UTC. Updated an hour ago

Ground ~20,000 ft ~40,000 ft Winds

METAR

KAQP 120233Z AUTO 34011G19KT 10SM CLR M09/M13 A3032 RMK AO2

TAF

Not found

Frequencies

Unicom 122.90 MHz CTAF
Warning: Do not use this data for real-world aviation or navigation. No guarantee of current accuracy is given.